createdAt,value
2019-02-25T00:01:05.026Z,103088.80
2019-02-25T00:04:12.950Z,103084.12
2019-02-25T00:07:19.545Z,103089.17
2019-02-25T00:10:25.881Z,103088.06
2019-02-25T00:13:32.272Z,103093.70
2019-02-25T00:16:38.598Z,103085.72
2019-02-25T00:19:45.039Z,103089.74
2019-02-25T00:22:51.592Z,103069.24
2019-02-25T00:25:58.039Z,103071.45
2019-02-25T00:29:04.380Z,103070.23
2019-02-25T00:32:10.826Z,103069.39
2019-02-25T00:35:17.063Z,103082.41
2019-02-25T00:38:23.982Z,103085.84
2019-02-25T00:41:30.427Z,103088.06
2019-02-25T00:44:36.803Z,103090.27
2019-02-25T00:47:43.174Z,103078.60
2019-02-25T00:50:50.669Z,103083.00
2019-02-25T00:53:56.980Z,103076.00
2019-02-25T00:57:03.380Z,103081.64
2019-02-25T01:00:11.893Z,103069.65
2019-02-25T01:03:18.473Z,103065.94
2019-02-25T01:06:24.812Z,103060.78
2019-02-25T01:09:31.385Z,103056.87
2019-02-25T01:12:38.183Z,103065.08
2019-02-25T01:15:44.636Z,103062.03
2019-02-25T01:18:52.391Z,103052.55
2019-02-25T01:21:58.945Z,103053.31
2019-02-25T01:25:07.581Z,103050.71
2019-02-25T01:28:13.998Z,103041.39
2019-02-25T01:31:20.336Z,103039.91
2019-02-25T01:34:26.690Z,103036.48
2019-02-25T01:37:33.127Z,103031.07
2019-02-25T01:40:39.777Z,103022.58
2019-02-25T01:43:47.296Z,103028.12
2019-02-25T01:46:53.755Z,103029.33
2019-02-25T01:50:00.288Z,103020.73
2019-02-25T01:53:06.731Z,103047.04
2019-02-25T01:56:13.069Z,103039.28
2019-02-25T01:59:19.654Z,103043.09
2019-02-25T02:02:26.053Z,103012.14
2019-02-25T02:05:32.461Z,103020.63
2019-02-25T02:08:38.699Z,103017.55
2019-02-25T02:11:45.203Z,103024.44
2019-02-25T02:14:51.553Z,103032.42
2019-02-25T02:17:58.100Z,103030.33
2019-02-25T02:21:04.555Z,103018.55
2019-02-25T02:24:11.057Z,103020.25
2019-02-25T02:27:18.419Z,103022.47
2019-02-25T02:30:24.897Z,103023.92
2019-02-25T02:33:31.192Z,103023.34
2019-02-25T02:36:37.537Z,103026.17
2019-02-25T02:39:43.787Z,103025.78
2019-02-25T02:42:53.047Z,103019.27
2019-02-25T02:46:27.861Z,103016.70
2019-02-25T02:49:34.350Z,103017.91
2019-02-25T02:52:40.855Z,103022.61
2019-02-25T02:55:48.529Z,103044.81
2019-02-25T02:58:54.926Z,103043.71
2019-02-25T03:02:01.405Z,103037.33
2019-02-25T03:05:10.801Z,103028.84
2019-02-25T03:08:17.233Z,103028.24
2019-02-25T03:11:23.640Z,103025.65
2019-02-25T03:14:30.218Z,103034.52
2019-02-25T03:17:36.529Z,103028.11
2019-02-25T03:20:43.048Z,103017.66
2019-02-25T03:23:49.320Z,103018.02
2019-02-25T03:26:55.708Z,102998.86
2019-02-25T03:30:02.058Z,102993.36
2019-02-25T03:33:10.072Z,102991.53
2019-02-25T03:36:16.403Z,102987.58
2019-02-25T03:39:22.641Z,102991.02
2019-02-25T03:42:29.176Z,102986.95
2019-02-25T03:45:35.745Z,103001.34
2019-02-25T03:48:42.319Z,103000.23
2019-02-25T03:51:48.656Z,102999.70
2019-02-25T03:54:54.985Z,102993.42
2019-02-25T03:58:01.392Z,102995.16
2019-02-25T04:01:07.727Z,103001.29
2019-02-25T04:04:14.110Z,103001.42
2019-02-25T04:07:20.461Z,102995.97
2019-02-25T04:10:26.969Z,103000.50
2019-02-25T04:13:33.321Z,102992.87
2019-02-25T04:16:39.996Z,103003.44
2019-02-25T04:19:46.472Z,103004.44
2019-02-25T04:22:52.833Z,103003.19
2019-02-25T04:25:59.131Z,103005.02
2019-02-25T04:29:05.764Z,103001.45
2019-02-25T04:32:12.166Z,103010.17
2019-02-25T04:35:18.685Z,103013.83
2019-02-25T04:38:25.023Z,103009.91
2019-02-25T04:41:31.365Z,103006.36
2019-02-25T04:44:37.696Z,103011.98
2019-02-25T04:47:45.086Z,103001.56
2019-02-25T04:50:51.566Z,103006.10
2019-02-25T04:53:57.979Z,102998.92
2019-02-25T04:57:04.351Z,102997.92
2019-02-25T05:00:13.200Z,102998.92
2019-02-25T05:03:19.440Z,102994.12
2019-02-25T05:06:25.878Z,102991.91
2019-02-25T05:09:32.217Z,102996.18
2019-02-25T05:12:40.290Z,102973.52
2019-02-25T05:15:46.683Z,102980.41
2019-02-25T05:18:53.051Z,102974.85
2019-02-25T05:21:59.638Z,102972.37
2019-02-25T05:25:06.341Z,102984.64
2019-02-25T05:28:12.618Z,102981.84
2019-02-25T05:31:19.093Z,102979.98
2019-02-25T05:34:25.464Z,102977.62
2019-02-25T05:37:32.024Z,102972.92
2019-02-25T05:40:38.648Z,102972.61
2019-02-25T05:43:46.038Z,102986.00
2019-02-25T05:46:52.359Z,102991.41
2019-02-25T05:49:59.293Z,102996.91
2019-02-25T05:53:06.827Z,102977.37
2019-02-25T05:56:13.293Z,102982.31
2019-02-25T05:59:19.539Z,102985.14
2019-02-25T06:02:26.286Z,102991.20
2019-02-25T06:05:32.617Z,102990.13
2019-02-25T06:08:38.998Z,102989.05
2019-02-25T06:11:45.399Z,102988.31
2019-02-25T06:14:51.936Z,102978.77
2019-02-25T06:17:58.192Z,102970.64
2019-02-25T06:21:04.586Z,102975.17
2019-02-25T06:24:10.871Z,102966.66
2019-02-25T06:27:17.295Z,102983.92
2019-02-25T06:30:23.725Z,102970.99
2019-02-25T06:33:30.136Z,102969.40
2019-02-25T06:36:36.388Z,102968.76
2019-02-25T06:39:42.954Z,102961.18
2019-02-25T06:42:49.274Z,102957.62
2019-02-25T06:45:55.664Z,102945.45
2019-02-25T06:49:01.995Z,102925.89
2019-02-25T06:52:09.754Z,102919.60
2019-02-25T06:55:16.329Z,102920.57
2019-02-25T06:58:23.172Z,102906.91
2019-02-25T07:01:29.572Z,102908.95
2019-02-25T07:04:55.997Z,102891.16
2019-02-25T07:08:24.366Z,102885.52
2019-02-25T07:11:49.678Z,102874.70
2019-02-25T07:15:33.487Z,102878.27
2019-02-25T07:18:47.266Z,102863.59
2019-02-25T07:21:59.257Z,102870.21
2019-02-25T07:25:34.527Z,102861.55
2019-02-25T07:28:53.989Z,102861.81
2019-02-25T07:32:15.687Z,102847.84
2019-02-25T07:35:41.538Z,102846.67
2019-02-25T07:39:16.329Z,102846.11
2019-02-25T07:42:44.558Z,102848.73
2019-02-25T07:45:58.300Z,102840.55
2019-02-25T07:49:14.505Z,102834.50
2019-02-25T07:52:30.647Z,102817.09
2019-02-25T07:56:02.396Z,102823.95
2019-02-25T07:59:32.664Z,102823.68
2019-02-25T08:02:45.105Z,102809.28
2019-02-25T08:06:14.273Z,102794.64
2019-02-25T08:09:37.263Z,102806.59
2019-02-25T08:12:48.613Z,102818.50
2019-02-25T08:16:32.018Z,102840.35
2019-02-25T08:19:58.354Z,102838.30
2019-02-25T08:23:23.629Z,102832.45
2019-02-25T08:26:47.776Z,102839.44
2019-02-25T08:30:12.202Z,102836.04
2019-02-25T08:33:58.779Z,102847.46
2019-02-25T08:37:40.642Z,102847.37
2019-02-25T08:41:33.294Z,102846.85
2019-02-25T08:45:10.987Z,102849.20
2019-02-25T08:48:36.459Z,102875.59
2019-02-25T08:51:42.846Z,102876.04
2019-02-25T08:54:49.568Z,102903.58
2019-02-25T08:57:56.180Z,102903.58
2019-02-25T09:01:02.542Z,102905.20
2019-02-25T09:04:08.906Z,102894.03
2019-02-25T09:07:15.507Z,102883.51
2019-02-25T09:10:21.822Z,102869.35
2019-02-25T09:13:28.259Z,102866.10
2019-02-25T09:16:34.720Z,102871.16
2019-02-25T09:19:41.078Z,102874.23
2019-02-25T09:22:48.476Z,102871.60
2019-02-25T09:25:56.525Z,102864.36
2019-02-25T09:29:02.907Z,102856.59
2019-02-25T09:32:09.470Z,102850.86
2019-02-25T09:35:15.782Z,102850.86
2019-02-25T09:38:23.647Z,102858.53
2019-02-25T09:41:30.401Z,102836.44
2019-02-25T09:44:37.966Z,102832.21
2019-02-25T09:47:44.417Z,102832.97
2019-02-25T09:50:50.697Z,102836.41
2019-02-25T09:53:57.121Z,102835.90
2019-02-25T09:57:03.959Z,102837.30
2019-02-25T10:00:13.745Z,102825.67
2019-02-25T10:03:20.375Z,102815.33
2019-02-25T10:06:26.788Z,102806.98
2019-02-25T10:09:33.230Z,102814.38
2019-02-25T10:12:39.586Z,102827.45
2019-02-25T10:15:46.045Z,102824.42
2019-02-25T10:18:52.423Z,102821.33
2019-02-25T10:21:58.777Z,102841.48
2019-02-25T10:25:05.263Z,102876.58
2019-02-25T10:28:12.437Z,102851.35
2019-02-25T10:31:18.822Z,102879.72
2019-02-25T10:34:25.160Z,102859.41
2019-02-25T10:37:31.429Z,102858.55
2019-02-25T10:40:37.821Z,102853.05
2019-02-25T10:43:44.305Z,102856.80
2019-02-25T10:46:50.697Z,102891.42
2019-02-25T10:49:58.560Z,102874.53
2019-02-25T10:53:05.275Z,102881.79
2019-02-25T10:56:17.357Z,102883.05
2019-02-25T10:59:25.444Z,102889.44
2019-02-25T11:02:32.026Z,102895.44
2019-02-25T11:05:38.657Z,102885.20
2019-02-25T11:08:49.491Z,102871.27
2019-02-25T11:11:58.007Z,102865.32
2019-02-25T11:15:05.290Z,102877.23
2019-02-25T11:18:12.269Z,102875.16
2019-02-25T11:21:18.639Z,102879.38
2019-02-25T11:24:25.408Z,102875.32
2019-02-25T11:27:33.199Z,102875.55
2019-02-25T11:30:40.000Z,102874.77
2019-02-25T11:33:46.456Z,102887.24
2019-02-25T11:36:54.930Z,102895.03
2019-02-25T11:40:01.955Z,102901.02
2019-02-25T11:43:10.679Z,102886.02
2019-02-25T11:46:17.346Z,102871.78
2019-02-25T11:49:23.697Z,102874.84
2019-02-25T11:52:29.966Z,102881.71
2019-02-25T11:55:36.315Z,102886.20
2019-02-25T11:58:42.804Z,102888.39
2019-02-25T12:01:49.384Z,102888.20
2019-02-25T12:04:55.943Z,102878.02
2019-02-25T12:08:02.343Z,102904.42
2019-02-25T12:11:08.806Z,102892.02
2019-02-25T12:14:16.365Z,102895.25
2019-02-25T12:17:22.693Z,102858.62
2019-02-25T12:20:29.066Z,102858.62
2019-02-25T12:23:35.520Z,102876.52
2019-02-25T12:26:41.836Z,102873.44
2019-02-25T12:29:48.247Z,102864.09
2019-02-25T12:32:54.766Z,102871.20
2019-02-25T12:36:02.753Z,102870.39
2019-02-25T12:39:12.042Z,102865.16
2019-02-25T12:42:18.384Z,102853.20
2019-02-25T12:45:24.728Z,102848.23
2019-02-25T12:48:31.321Z,102847.56
2019-02-25T12:51:37.728Z,102840.41
2019-02-25T12:54:44.129Z,102822.20
2019-02-25T12:57:50.502Z,102822.20
2019-02-25T13:00:56.812Z,102837.73
2019-02-25T13:04:03.589Z,102843.69
2019-02-25T13:07:10.279Z,102818.59
2019-02-25T13:10:16.831Z,102818.59
2019-02-25T13:13:23.273Z,102826.63
2019-02-25T13:16:29.711Z,102829.44
2019-02-25T13:19:36.091Z,102827.11
2019-02-25T13:22:42.489Z,102824.57
2019-02-25T13:25:48.961Z,102815.89
2019-02-25T13:28:55.552Z,102824.73
2019-02-25T13:32:02.406Z,102828.48
2019-02-25T13:35:09.087Z,102829.84
2019-02-25T13:38:15.597Z,102828.82
2019-02-25T13:41:22.033Z,102825.73
2019-02-25T13:44:28.366Z,102812.30
2019-02-25T13:47:35.099Z,102803.20
2019-02-25T13:50:41.564Z,102797.23
2019-02-25T13:53:47.875Z,102794.69
2019-02-25T13:56:54.311Z,102782.65
2019-02-25T14:00:00.693Z,102789.25
2019-02-25T14:03:07.174Z,102791.53
2019-02-25T14:06:13.647Z,102784.44
2019-02-25T14:09:20.256Z,102792.91
2019-02-25T14:12:26.681Z,102798.44
2019-02-25T14:15:34.061Z,102799.80
2019-02-25T14:18:40.430Z,102816.19
2019-02-25T14:21:46.944Z,102813.97
2019-02-25T14:24:54.382Z,102797.93
2019-02-25T14:28:02.742Z,102809.50
2019-02-25T14:31:09.194Z,102813.00
2019-02-25T14:34:15.910Z,102814.99
2019-02-25T14:37:22.719Z,102820.41
2019-02-25T14:40:32.130Z,102809.33
2019-02-25T14:43:42.781Z,102792.13
2019-02-25T14:46:45.686Z,102788.88
2019-02-25T14:49:52.150Z,102777.42
2019-02-25T14:53:00.186Z,102781.27
2019-02-25T14:56:07.878Z,102784.28
2019-02-25T14:59:15.575Z,102781.87
2019-02-25T15:02:22.541Z,102773.05
2019-02-25T15:05:29.072Z,102773.22
2019-02-25T15:08:36.139Z,102780.47
2019-02-25T15:11:42.622Z,102803.11
2019-02-25T15:14:49.083Z,102799.53
2019-02-25T15:17:55.626Z,102802.02
2019-02-25T15:21:02.469Z,102804.33
2019-02-25T15:24:12.647Z,102812.66
2019-02-25T15:27:19.665Z,102809.42
2019-02-25T15:30:28.233Z,102809.25
2019-02-25T15:33:35.751Z,102800.83
2019-02-25T15:36:42.212Z,102808.61
2019-02-25T15:39:48.772Z,102814.66
2019-02-25T15:43:12.651Z,102817.45
2019-02-25T15:46:19.602Z,102813.80
2019-02-25T15:49:26.569Z,102813.80
2019-02-25T15:52:39.922Z,102801.73
2019-02-25T15:55:42.357Z,102819.84
2019-02-25T15:58:51.241Z,102814.15
2019-02-25T16:01:57.614Z,102819.67
2019-02-25T16:05:05.865Z,102814.62
2019-02-25T16:08:16.244Z,102814.91
2019-02-25T16:11:25.690Z,102794.78
2019-02-25T16:14:31.881Z,102794.78
2019-02-25T16:17:38.509Z,102788.29
2019-02-25T16:20:46.225Z,102781.02
2019-02-25T16:23:54.097Z,102784.78
2019-02-25T16:27:01.000Z,102794.22
2019-02-25T16:30:10.400Z,102794.38
2019-02-25T16:33:17.439Z,102797.56
2019-02-25T16:36:26.066Z,102789.02
2019-02-25T16:39:31.965Z,102769.33
2019-02-25T16:42:39.330Z,102759.31
2019-02-25T16:45:47.033Z,102764.46
2019-02-25T16:48:55.135Z,102752.55
2019-02-25T16:52:02.145Z,102756.39
2019-02-25T16:55:10.155Z,102762.77
2019-02-25T16:58:17.434Z,102756.46
2019-02-25T17:01:25.798Z,102756.46
2019-02-25T17:04:32.021Z,102758.39
2019-02-25T17:07:40.080Z,102758.67
2019-02-25T17:10:46.672Z,102739.98
2019-02-25T17:13:55.125Z,102742.56
2019-02-25T17:17:01.756Z,102718.95
2019-02-25T17:20:13.018Z,102715.32
2019-02-25T17:23:20.030Z,102716.30
2019-02-25T17:26:26.563Z,102712.89
2019-02-25T17:29:34.172Z,102715.59
2019-02-25T17:32:42.445Z,102721.94
2019-02-25T17:35:49.976Z,102716.08
2019-02-25T17:38:57.670Z,102714.52
2019-02-25T17:42:05.609Z,102684.63
2019-02-25T17:45:17.150Z,102690.33
2019-02-25T17:48:24.703Z,102692.77
2019-02-25T17:51:31.010Z,102694.06
2019-02-25T17:54:38.149Z,102693.89
2019-02-25T17:57:45.659Z,102685.14
2019-02-25T18:00:53.971Z,102688.19
2019-02-25T18:04:02.524Z,102679.28
2019-02-25T18:07:09.310Z,102675.27
2019-02-25T18:10:15.762Z,102686.74
2019-02-25T18:13:23.687Z,102688.16
2019-02-25T18:16:33.287Z,102677.78
2019-02-25T18:19:41.808Z,102665.98
2019-02-25T18:22:50.804Z,102662.58
2019-02-25T18:25:58.656Z,102658.22
2019-02-25T18:29:05.552Z,102649.64
2019-02-25T18:32:12.319Z,102623.27
2019-02-25T18:35:21.215Z,102623.27
2019-02-25T18:38:29.630Z,102635.64
2019-02-25T18:41:37.106Z,102642.12
2019-02-25T18:44:44.924Z,102640.20
2019-02-25T18:47:51.598Z,102629.64
2019-02-25T18:50:59.622Z,102628.28
2019-02-25T18:54:06.257Z,102628.16
2019-02-25T18:57:12.591Z,102609.71
2019-02-25T19:00:26.378Z,102609.71
2019-02-25T19:03:35.499Z,102607.24
2019-02-25T19:06:43.564Z,102596.32
2019-02-25T19:09:51.625Z,102594.67
2019-02-25T19:12:59.168Z,102591.99
2019-02-25T19:16:06.710Z,102580.91
2019-02-25T19:19:16.523Z,102600.08
2019-02-25T19:22:24.576Z,102579.02
2019-02-25T19:25:30.898Z,102581.81
2019-02-25T19:28:37.263Z,102576.83
2019-02-25T19:31:43.639Z,102578.41
2019-02-25T19:34:51.934Z,102587.23
2019-02-25T19:38:03.173Z,102582.95
2019-02-25T19:41:11.065Z,102570.05
2019-02-25T19:44:16.299Z,102564.02
2019-02-25T19:47:22.678Z,102553.42
2019-02-25T19:50:29.915Z,102553.42
2019-02-25T19:53:38.816Z,102568.05
2019-02-25T19:56:45.966Z,102568.38
2019-02-25T19:59:55.415Z,102562.67
2019-02-25T20:03:05.688Z,102550.35
2019-02-25T20:06:13.807Z,102562.83
2019-02-25T20:09:18.374Z,102570.68
2019-02-25T20:12:24.937Z,102549.23
2019-02-25T20:15:31.385Z,102544.31
2019-02-25T20:18:39.624Z,102550.55
2019-02-25T20:21:47.768Z,102551.50
2019-02-25T20:24:57.653Z,102549.04
2019-02-25T20:28:04.320Z,102549.73
2019-02-25T20:31:12.724Z,102573.35
2019-02-25T20:34:20.697Z,102554.63
2019-02-25T20:37:27.873Z,102557.94
2019-02-25T20:40:35.283Z,102557.94
2019-02-25T20:43:41.699Z,102561.55
2019-02-25T20:46:50.690Z,102548.58
2019-02-25T20:49:56.536Z,102555.35
2019-02-25T20:53:06.503Z,102555.77
2019-02-25T20:56:12.441Z,102553.47
2019-02-25T20:59:20.948Z,102547.43
2019-02-25T21:02:26.995Z,102527.03
2019-02-25T21:05:33.290Z,102512.53
2019-02-25T21:08:40.605Z,102517.20
2019-02-25T21:11:48.707Z,102520.49
2019-02-25T21:14:55.116Z,102508.95
2019-02-25T21:18:04.421Z,102523.08
2019-02-25T21:21:13.469Z,102525.53
2019-02-25T21:24:19.035Z,102514.53
2019-02-25T21:27:28.327Z,102526.09
2019-02-25T21:30:37.161Z,102519.68
2019-02-25T21:33:45.011Z,102517.39
2019-02-25T21:36:49.863Z,102518.81
2019-02-25T21:39:58.208Z,102529.37
2019-02-25T21:43:04.277Z,102526.61
2019-02-25T21:46:10.739Z,102545.62
2019-02-25T21:49:17.282Z,102549.45
2019-02-25T21:52:23.772Z,102556.81
2019-02-25T21:55:32.565Z,102550.46
2019-02-25T21:58:38.179Z,102551.54
2019-02-25T22:01:46.013Z,102552.04
2019-02-25T22:04:54.052Z,102571.55
2019-02-25T22:08:02.268Z,102557.24
2019-02-25T22:11:14.797Z,102551.73
2019-02-25T22:14:20.499Z,102566.72
2019-02-25T22:17:25.679Z,102560.29
2019-02-25T22:20:35.634Z,102567.15
2019-02-25T22:23:40.452Z,102576.53
2019-02-25T22:26:49.980Z,102575.11
2019-02-25T22:29:57.968Z,102571.11
2019-02-25T22:33:07.126Z,102569.05
2019-02-25T22:36:12.891Z,102561.86
2019-02-25T22:39:21.307Z,102562.93
2019-02-25T22:42:29.681Z,102574.96
2019-02-25T22:45:37.684Z,102575.98
2019-02-25T22:48:45.410Z,102572.25
2019-02-25T22:51:55.760Z,102567.98
2019-02-25T22:55:00.232Z,102565.98
2019-02-25T22:58:08.394Z,102564.07
2019-02-25T23:01:17.941Z,102572.13
2019-02-25T23:04:24.834Z,102577.91
2019-02-25T23:07:32.293Z,102565.20
2019-02-25T23:10:41.939Z,102564.41
2019-02-25T23:13:47.875Z,102572.13
2019-02-25T23:16:55.114Z,102573.27
2019-02-25T23:20:02.673Z,102572.84
2019-02-25T23:23:09.851Z,102565.70
2019-02-25T23:26:17.080Z,102565.27
2019-02-25T23:29:28.257Z,102570.04
2019-02-25T23:32:33.255Z,102566.31
2019-02-25T23:35:42.743Z,102568.36
2019-02-25T23:38:47.882Z,102573.66
2019-02-25T23:41:54.457Z,102579.17
2019-02-25T23:45:00.780Z,102574.72
2019-02-25T23:48:08.999Z,102587.27
2019-02-25T23:51:17.269Z,102582.17
2019-02-25T23:54:25.377Z,102589.20
2019-02-25T23:57:32.765Z,102574.97
